Northway Airport Northway US
ICAO: PAOR
IATA:
Category: Medium
Scheduled Services:

Elevation: 1715 ft
TransAlt. 18000 ft.

Airport Communications:
ASOS:135.4
ANCHORAGE CNTR:126.55
CTAF:123.6
RDO:122.2
SUAS INFO SVC:125.3

PAOR Zoom In..

If you have problems with the map follow the link
https://www.worldairports.se/pages/airport.php?
ICAO=PAOR

Runways:

(A) RW 05 length 5100 ft width 100 ft
---- / hdg 52

(B) RW 23 length 5100 ft width 100 ft
---- / hdg 232

Location; PAOR
Day. 14 / Time. 19.20 Zulu
* Altimeter: 29.87
* Temperature: -19° c. 2.2°f.
* Wind from: 000° Speed 00 kn.
Dewpoint: -21° c.
Visibility: 3 Statute Miles.
Clouds: Overcast 300 ft.
Conditions: Mist.

PAOR 141920Z 00000KT 3SM BR OVC003 M19/M21 A2987 RMK AO2 T11891211 PNO


Wind - Calm.

 
 
jpsmedia worldairports.se 2019   terms of use